Time;durP1;ratioP1;P1;durP2;ratioP2;P2;SDS_P1;SDS_P2;PMS_P1;PMS_P2;Temp;Humidity;BMP_temperature;BMP_pressure;BME280_temperature;BME280_humidity;BME280_pressure;Samples;Min_cycle;Max_cycle;Signal;HPM_P1;HPM_P2
2023/07/26 00:02:56;;;;;;;3.88;1.65;;;;;;;18.16;58.47;99657.25;10330299;28;20112;-71
2023/07/26 00:07:57;;;;;;;2.80;1.50;;;;;;;18.11;58.38;99653.47;10330473;28;20058;-70
2023/07/26 00:12:58;;;;;;;1.85;1.20;;;;;;;18.17;58.84;99658.94;10329773;28;20439;-71
2023/07/26 00:17:59;;;;;;;3.88;1.30;;;;;;;18.15;58.68;99654.75;10330064;28;20141;-71
2023/07/26 00:23:02;;;;;;;3.33;1.40;;;;;;;18.18;58.59;99649.84;10328175;28;20058;-69
2023/07/26 00:28:04;;;;;;;4.45;1.92;;;;;;;18.15;58.29;99655.59;10323765;28;20500;-70
2023/07/26 00:33:05;;;;;;;3.65;1.23;;;;;;;18.12;58.37;99661.34;10325293;28;20745;-68
2023/07/26 00:38:06;;;;;;;3.95;1.85;;;;;;;18.06;60.22;99662.09;10330668;28;20077;-70
2023/07/26 00:43:08;;;;;;;2.55;1.05;;;;;;;18.10;58.80;99665.25;10328335;28;20045;-69
2023/07/26 00:48:10;;;;;;;2.00;1.10;;;;;;;18.09;58.80;99667.13;10333056;28;20057;-71
2023/07/26 00:53:13;;;;;;;2.47;1.38;;;;;;;18.12;59.88;99679.34;10345356;28;21132;-70
2023/07/26 00:58:14;;;;;;;2.72;1.23;;;;;;;18.05;60.14;99683.84;10366236;28;20147;-71
2023/07/26 01:03:16;;;;;;;3.05;1.70;;;;;;;18.02;59.82;99676.97;10359894;28;20045;-69
2023/07/26 01:08:42;;;;;;;4.03;1.73;;;;;;;18.04;60.33;99684.84;10327468;28;20041;-70
2023/07/26 01:14:00;;;;;;;4.65;1.30;;;;;;;18.01;60.05;99686.91;10326443;28;20221;-70
2023/07/26 01:19:02;;;;;;;3.85;1.10;;;;;;;18.00;59.11;99685.22;10327080;28;20571;-71
2023/07/26 01:24:04;;;;;;;3.03;1.10;;;;;;;17.98;60.37;99698.03;10330483;28;20829;-70
2023/07/26 01:29:05;;;;;;;2.90;1.10;;;;;;;17.96;60.87;99692.00;10327283;28;20068;-70
2023/07/26 01:34:08;;;;;;;2.67;1.10;;;;;;;17.99;60.98;99691.63;10325085;28;20806;-69
2023/07/26 01:39:11;;;;;;;3.20;1.30;;;;;;;17.92;60.62;99688.00;10326561;28;20119;-69
2023/07/26 01:44:12;;;;;;;2.13;1.13;;;;;;;17.94;60.48;99691.34;10320740;28;20144;-71
2023/07/26 01:49:16;;;;;;;3.13;1.35;;;;;;;17.85;61.24;99704.03;10328101;28;20054;-70
2023/07/26 01:54:18;;;;;;;3.05;1.20;;;;;;;17.89;62.30;99715.28;10328247;28;20680;-68
2023/07/26 01:59:19;;;;;;;3.83;1.25;;;;;;;17.85;60.21;99706.72;10333103;28;20110;-69
2023/07/26 02:04:21;;;;;;;2.15;0.80;;;;;;;17.89;59.53;99704.53;10337323;28;20046;-70
2023/07/26 02:09:22;;;;;;;5.35;1.30;;;;;;;17.80;60.92;99710.97;10331378;28;20845;-70
2023/07/26 02:14:24;;;;;;;2.13;0.98;;;;;;;17.78;61.95;99718.41;10338601;28;20532;-68
2023/07/26 02:19:25;;;;;;;1.52;0.93;;;;;;;17.74;60.98;99709.84;10333404;28;20093;-70
2023/07/26 02:24:27;;;;;;;4.10;1.10;;;;;;;17.71;62.00;99718.28;10339766;28;20228;-72
2023/07/26 02:29:29;;;;;;;2.88;1.00;;;;;;;17.73;62.38;99715.44;10335606;28;20500;-71
2023/07/26 02:34:30;;;;;;;3.58;1.00;;;;;;;17.71;61.49;99720.16;10332927;28;20046;-71
2023/07/26 02:39:32;;;;;;;1.75;1.00;;;;;;;17.65;61.77;99719.03;10334618;28;20139;-69
2023/07/26 02:44:33;;;;;;;1.50;1.08;;;;;;;17.57;62.25;99717.25;10333629;28;20045;-69
2023/07/26 02:49:34;;;;;;;2.25;0.90;;;;;;;17.55;61.88;99718.44;10332568;28;20129;-69
2023/07/26 02:54:36;;;;;;;4.47;1.83;;;;;;;17.49;61.97;99720.88;10331241;28;20115;-69
2023/07/26 02:59:37;;;;;;;2.40;0.82;;;;;;;17.52;62.37;99725.06;10335258;28;20612;-70
2023/07/26 03:04:39;;;;;;;1.65;1.17;;;;;;;17.48;62.66;99721.03;10333205;28;20049;-70
2023/07/26 03:09:40;;;;;;;2.33;0.93;;;;;;;17.48;62.06;99729.94;10339814;28;20519;-69
2023/07/26 03:14:41;;;;;;;2.42;1.13;;;;;;;17.43;62.51;99737.72;10337902;28;20489;-69
2023/07/26 03:19:43;;;;;;;1.95;1.02;;;;;;;17.45;63.27;99742.94;10334198;28;20582;-70
2023/07/26 03:24:44;;;;;;;1.88;1.27;;;;;;;17.46;62.09;99741.94;10332151;28;20520;-70
2023/07/26 03:29:46;;;;;;;2.60;1.17;;;;;;;17.41;62.80;99741.63;10331080;28;20193;-69
2023/07/26 03:34:48;;;;;;;2.40;1.00;;;;;;;17.45;61.95;99751.00;10330160;28;20123;-70
2023/07/26 03:39:49;;;;;;;2.65;1.98;;;;;;;17.40;62.66;99746.16;10333229;28;20057;-70
2023/07/26 03:44:50;;;;;;;2.25;1.00;;;;;;;17.41;62.72;99749.69;10327885;28;20046;-70
2023/07/26 03:49:52;;;;;;;3.08;1.10;;;;;;;17.38;62.83;99750.03;10340851;28;20132;-70
2023/07/26 03:54:53;;;;;;;3.00;1.00;;;;;;;17.40;62.67;99754.25;10328457;28;20053;-71
2023/07/26 03:59:55;;;;;;;4.30;1.17;;;;;;;17.41;63.22;99753.19;10330266;28;20188;-70
2023/07/26 04:04:56;;;;;;;2.03;0.98;;;;;;;17.39;62.97;99762.50;10328842;28;20575;-71
2023/07/26 04:09:58;;;;;;;2.65;1.40;;;;;;;17.42;61.98;99759.44;10331336;28;20483;-71
2023/07/26 04:15:00;;;;;;;2.55;1.10;;;;;;;17.37;62.76;99757.28;10330425;28;20146;-69
2023/07/26 04:20:01;;;;;;;3.13;1.33;;;;;;;17.39;61.56;99767.88;10326574;28;20527;-70
2023/07/26 04:25:03;;;;;;;4.57;1.70;;;;;;;17.35;61.43;99763.84;10328550;28;20058;-69
2023/07/26 04:30:05;;;;;;;3.80;1.30;;;;;;;17.37;62.95;99775.25;10327266;28;20053;-69
2023/07/26 04:35:07;;;;;;;2.13;1.35;;;;;;;17.33;64.03;99768.59;10329846;28;20629;-71
2023/07/26 04:40:09;;;;;;;2.28;1.50;;;;;;;17.31;63.72;99774.97;10327056;28;20149;-69
2023/07/26 04:45:10;;;;;;;3.38;1.60;;;;;;;17.30;64.17;99785.91;10324746;28;20576;-72
2023/07/26 04:50:12;;;;;;;3.85;2.33;;;;;;;17.26;63.78;99788.13;10328878;28;20139;-70
2023/07/26 04:55:13;;;;;;;9.52;1.73;;;;;;;17.22;64.13;99781.44;10328328;28;20137;-71
2023/07/26 05:00:14;;;;;;;4.22;1.80;;;;;;;17.18;64.91;99777.41;10328590;28;20050;-70
2023/07/26 05:05:16;;;;;;;2.97;1.80;;;;;;;17.11;65.37;99781.81;10328107;28;20038;-70
2023/07/26 05:10:19;;;;;;;4.28;2.08;;;;;;;17.10;64.60;99793.63;10327121;28;20060;-70
2023/07/26 05:15:20;;;;;;;3.30;1.73;;;;;;;17.08;65.00;99787.56;10328397;28;20072;-70
2023/07/26 05:20:22;;;;;;;3.65;1.50;;;;;;;17.02;65.34;99788.28;10327863;28;20080;-72
2023/07/26 05:25:23;;;;;;;3.50;1.88;;;;;;;17.01;65.24;99789.28;10327144;28;20046;-70
2023/07/26 05:30:24;;;;;;;2.63;1.70;;;;;;;17.06;64.96;99803.88;10329148;28;20093;-70
2023/07/26 05:35:26;;;;;;;4.90;1.58;;;;;;;17.01;64.78;99798.19;10331402;28;20057;-73
2023/07/26 05:40:27;;;;;;;3.60;1.50;;;;;;;16.92;63.99;99789.34;10336144;28;20178;-72
2023/07/26 05:45:29;;;;;;;3.97;1.30;;;;;;;16.90;63.88;99803.97;10335608;28;20543;-72
2023/07/26 05:50:30;;;;;;;4.50;2.05;;;;;;;16.87;64.12;99799.75;10331201;28;20053;-73
2023/07/26 05:55:31;;;;;;;2.78;1.75;;;;;;;16.77;62.94;99801.81;10338130;28;20404;-73
2023/07/26 06:00:33;;;;;;;3.47;1.50;;;;;;;16.76;64.39;99816.25;10335990;28;20227;-72
2023/07/26 06:05:34;;;;;;;3.53;2.10;;;;;;;16.77;64.22;99813.41;10342588;28;20049;-70
2023/07/26 06:10:36;;;;;;;3.38;1.52;;;;;;;16.85;65.21;99834.03;10337744;28;20323;-73
2023/07/26 06:15:39;;;;;;;4.32;1.92;;;;;;;16.91;64.94;99829.84;10337328;28;20146;-72
2023/07/26 06:20:40;;;;;;;3.60;2.37;;;;;;;16.91;65.62;99846.78;10335708;28;20057;-71
2023/07/26 06:25:42;;;;;;;3.97;2.42;;;;;;;16.93;70.53;99850.16;10335653;28;20233;-73
2023/07/26 06:30:43;;;;;;;3.53;2.63;;;;;;;16.95;72.14;99858.06;10335032;28;20049;-72
2023/07/26 06:35:44;;;;;;;3.15;2.25;;;;;;;16.88;69.44;99873.19;10338488;28;20093;-73
2023/07/26 06:40:46;;;;;;;3.15;1.80;;;;;;;16.46;72.09;99895.78;10332763;28;20127;-69
2023/07/26 06:45:50;;;;;;;3.38;1.42;;;;;;;16.25;75.75;99895.28;10333641;28;20512;-72
2023/07/26 06:50:51;;;;;;;4.63;2.65;;;;;;;16.24;77.39;99909.75;10335978;28;20053;-73
2023/07/26 06:55:57;;;;;;;4.18;2.67;;;;;;;16.43;77.62;99897.78;10335353;28;20049;-73
2023/07/26 07:00:59;;;;;;;5.18;2.38;;;;;;;16.54;77.91;99891.25;10331693;28;20582;-72
2023/07/26 07:06:00;;;;;;;4.18;1.95;;;;;;;16.48;75.92;99899.13;10332267;28;20558;-73
2023/07/26 07:11:02;;;;;;;1.80;1.08;;;;;;;16.46;70.82;99880.50;10335857;28;20074;-73
2023/07/26 07:16:04;;;;;;;3.00;1.30;;;;;;;16.39;73.30;99885.72;10332972;28;20177;-72
2023/07/26 07:21:05;;;;;;;1.42;0.98;;;;;;;16.43;73.99;99889.72;10332836;28;20058;-72
2023/07/26 07:26:07;;;;;;;3.00;0.80;;;;;;;16.49;71.64;99896.28;10334551;28;20055;-73
2023/07/26 07:31:08;;;;;;;4.43;2.40;;;;;;;16.51;73.79;99904.16;10333782;28;20132;-71
2023/07/26 07:36:12;;;;;;;5.65;1.95;;;;;;;16.55;73.95;99903.66;10331345;28;20061;-71
2023/07/26 07:41:14;;;;;;;4.55;2.38;;;;;;;16.53;74.40;99903.00;10335028;28;20041;-71
2023/07/26 07:46:15;;;;;;;2.47;1.33;;;;;;;16.58;75.76;99899.78;10332820;28;20058;-71
2023/07/26 07:51:17;;;;;;;1.58;1.33;;;;;;;16.63;75.12;99902.78;10334021;28;20081;-71
2023/07/26 07:56:18;;;;;;;2.40;1.38;;;;;;;16.69;76.28;99912.03;10328388;28;20057;-72
2023/07/26 08:01:20;;;;;;;1.85;1.35;;;;;;;16.67;73.54;99906.81;10329561;28;20416;-72
2023/07/26 08:06:21;;;;;;;1.80;1.67;;;;;;;16.69;73.91;99902.09;10331321;28;20053;-72
2023/07/26 08:11:23;;;;;;;3.10;2.10;;;;;;;16.77;75.77;99899.41;10331287;28;20057;-71
2023/07/26 08:16:24;;;;;;;2.60;1.80;;;;;;;16.87;72.88;99893.84;10331842;28;20053;-72
2023/07/26 08:21:26;;;;;;;4.35;2.05;;;;;;;16.98;71.83;99905.25;10330769;28;20607;-73
2023/07/26 08:26:28;;;;;;;4.93;2.25;;;;;;;16.98;71.42;99900.72;10332758;28;20057;-73
2023/07/26 08:31:29;;;;;;;3.17;2.28;;;;;;;17.11;76.33;99905.53;10331634;28;20060;-72
2023/07/26 08:36:31;;;;;;;2.92;2.42;;;;;;;17.08;72.30;99905.88;10332357;28;20064;-73
2023/07/26 08:41:34;;;;;;;2.45;2.25;;;;;;;17.16;74.96;99903.16;10330303;28;20341;-70
2023/07/26 08:46:45;;;;;;;5.13;2.65;;;;;;;17.22;73.34;99906.97;10333503;28;20867;-71
2023/07/26 08:51:47;;;;;;;3.67;3.38;;;;;;;17.29;74.52;99898.06;10329952;28;21178;-71
2023/07/26 08:56:49;;;;;;;5.75;2.80;;;;;;;17.46;74.01;99914.13;10329283;28;20144;-72
2023/07/26 09:01:53;;;;;;;5.63;3.63;;;;;;;17.54;74.40;99905.97;10322442;28;20054;-72
2023/07/26 09:07:05;;;;;;;;;;;;;;;17.70;72.54;99912.28;10328749;28;20110;-71
2023/07/26 09:12:07;;;;;;;3.33;3.08;;;;;;;17.80;74.35;99896.72;10326647;28;20044;-72
2023/07/26 09:17:09;;;;;;;3.78;3.15;;;;;;;18.00;72.88;99897.97;10329386;28;20459;-71
2023/07/26 09:22:10;;;;;;;3.40;2.78;;;;;;;18.07;69.58;99905.31;10327477;28;20050;-72
2023/07/26 09:27:12;;;;;;;4.15;3.25;;;;;;;18.13;72.80;99901.88;10326869;28;20057;-72
2023/07/26 09:32:13;;;;;;;3.25;2.33;;;;;;;18.21;68.40;99904.53;10323277;28;20424;-69
2023/07/26 09:37:19;;;;;;;3.42;2.28;;;;;;;18.31;64.86;99905.09;10328438;28;20053;-73
2023/07/26 09:42:20;;;;;;;5.18;2.33;;;;;;;18.26;63.56;99907.50;10326282;28;20143;-71
2023/07/26 09:47:34;;;;;;;3.13;1.60;;;;;;;18.52;65.34;99895.47;10327066;28;20045;-70
2023/07/26 09:52:42;;;;;;;4.93;2.22;;;;;;;18.78;64.68;99894.19;10324201;28;20049;-69
2023/07/26 09:57:44;;;;;;;3.13;1.90;;;;;;;19.11;62.61;99886.59;10325981;28;20492;-72
2023/07/26 10:02:58;;;;;;;4.88;2.03;;;;;;;19.42;59.39;99880.09;10326619;28;20057;-70
2023/07/26 10:08:01;;;;;;;5.30;2.45;;;;;;;19.74;60.18;99873.38;10329106;28;20045;-69
2023/07/26 10:13:04;;;;;;;2.13;1.60;;;;;;;20.19;58.50;99888.53;10324558;28;20057;-69
2023/07/26 10:18:06;;;;;;;3.72;1.95;;;;;;;20.35;56.47;99874.72;10326937;28;20042;-70
2023/07/26 10:23:10;;;;;;;3.40;1.67;;;;;;;20.37;55.78;99872.69;10335650;28;20642;-68
2023/07/26 10:28:13;;;;;;;2.67;1.58;;;;;;;20.00;54.34;99865.75;10337053;28;20133;-71
2023/07/26 10:33:14;;;;;;;2.57;1.70;;;;;;;19.84;56.88;99870.38;10331383;28;20054;-71
2023/07/26 10:38:18;;;;;;;3.72;2.30;;;;;;;19.77;57.42;99864.91;10332505;28;20053;-70
2023/07/26 10:43:19;;;;;;;3.63;1.67;;;;;;;19.63;55.49;99863.06;10330465;28;20659;-71
2023/07/26 10:48:28;;;;;;;3.15;1.40;;;;;;;19.49;54.74;99869.38;10334573;28;20053;-72
2023/07/26 10:53:33;;;;;;;1.92;1.70;;;;;;;19.52;54.97;99869.00;10332590;28;20128;-73
2023/07/26 10:58:35;;;;;;;2.63;1.10;;;;;;;19.79;56.80;99845.81;10334257;28;20321;-73
2023/07/26 11:03:41;;;;;;;4.70;1.70;;;;;;;20.00;55.78;99842.25;10336231;28;22336;-71
2023/07/26 11:08:43;;;;;;;3.35;1.60;;;;;;;19.92;53.01;99835.13;10334327;28;20049;-72
2023/07/26 11:13:45;;;;;;;3.92;1.77;;;;;;;19.96;54.24;99824.75;10338032;28;20509;-72
2023/07/26 11:18:46;;;;;;;3.20;1.63;;;;;;;19.98;52.48;99830.78;10334987;28;20184;-69
2023/07/26 11:23:47;;;;;;;5.80;2.22;;;;;;;19.91;53.51;99832.63;10362016;28;20298;-68
2023/07/26 11:28:49;;;;;;;2.50;1.73;;;;;;;19.68;54.61;99841.75;10341213;28;20061;-72
2023/07/26 11:33:51;;;;;;;4.07;1.90;;;;;;;19.31;58.33;99843.63;10335034;28;20527;-72
2023/07/26 11:38:53;;;;;;;3.03;1.90;;;;;;;18.63;62.83;99849.19;10331450;28;20053;-71
2023/07/26 11:43:54;;;;;;;4.15;1.98;;;;;;;18.09;67.48;99850.25;10332131;28;20057;-72
2023/07/26 11:48:56;;;;;;;3.22;2.05;;;;;;;17.97;69.14;99849.84;10332121;28;20930;-72
2023/07/26 11:53:58;;;;;;;2.45;1.85;;;;;;;18.57;69.07;99857.19;10330895;28;20354;-72
2023/07/26 11:59:00;;;;;;;3.17;1.67;;;;;;;18.94;67.88;99850.88;10335249;28;20531;-72
2023/07/26 12:04:12;;;;;;;3.47;1.55;;;;;;;19.14;66.31;99847.59;10332020;28;20345;-72
2023/07/26 12:09:14;;;;;;;2.85;1.42;;;;;;;19.57;62.57;99834.16;10333007;28;20049;-72
2023/07/26 12:14:16;;;;;;;3.25;1.77;;;;;;;20.12;61.60;99839.88;10325346;28;20571;-69
2023/07/26 12:19:22;;;;;;;2.42;1.40;;;;;;;20.44;59.61;99830.31;10329628;28;20077;-69
2023/07/26 12:24:27;;;;;;;2.97;1.77;;;;;;;20.87;59.91;99832.03;10337015;28;20054;-72
2023/07/26 12:29:30;;;;;;;1.65;0.77;;;;;;;21.03;55.81;99833.53;10329809;28;20050;-71
2023/07/26 12:34:32;;;;;;;0.93;0.60;;;;;;;21.07;51.40;99826.69;10326380;28;20057;-73
2023/07/26 12:39:37;;;;;;;0.82;0.40;;;;;;;21.52;48.21;99824.34;10327732;28;20131;-72
2023/07/26 12:44:38;;;;;;;1.00;0.57;;;;;;;21.30;44.95;99825.50;10332802;28;20145;-73
2023/07/26 12:49:41;;;;;;;1.52;0.63;;;;;;;21.17;46.66;99827.16;10330625;28;20053;-69
2023/07/26 12:54:42;;;;;;;1.53;0.40;;;;;;;21.43;46.14;99833.66;10328407;28;20139;-71
2023/07/26 12:59:44;;;;;;;1.05;0.57;;;;;;;21.39;43.81;99834.28;10327388;28;20119;-69
2023/07/26 13:04:47;;;;;;;1.08;0.40;;;;;;;21.35;44.28;99828.44;10332470;28;20632;-72
2023/07/26 13:09:49;;;;;;;0.50;0.32;;;;;;;21.48;44.63;99833.91;10330393;28;20045;-72
2023/07/26 13:14:50;;;;;;;1.10;0.50;;;;;;;21.61;44.99;99835.81;10328588;28;20050;-73
2023/07/26 13:19:54;;;;;;;2.10;0.50;;;;;;;21.76;42.96;99835.63;10327020;28;20113;-72
2023/07/26 13:24:56;;;;;;;1.05;0.43;;;;;;;21.52;40.72;99850.59;10322272;28;20133;-74
2023/07/26 13:29:57;;;;;;;1.20;0.40;;;;;;;21.71;39.90;99838.13;10329070;28;20576;-70
2023/07/26 13:34:59;;;;;;;1.00;0.50;;;;;;;21.87;40.93;99832.31;10327291;28;20045;-70
2023/07/26 13:40:01;;;;;;;1.60;0.68;;;;;;;22.00;41.15;99830.63;10329862;28;20057;-70
2023/07/26 13:45:07;;;;;;;1.23;0.50;;;;;;;22.10;40.07;99836.47;10329575;28;20054;-72
2023/07/26 13:50:09;;;;;;;1.83;0.60;;;;;;;21.93;39.07;99829.78;10327022;28;20046;-72
2023/07/26 13:55:10;;;;;;;0.80;0.50;;;;;;;22.01;39.13;99818.75;10337390;28;20057;-71
2023/07/26 14:00:12;;;;;;;0.70;0.40;;;;;;;22.00;38.76;99808.97;10336503;28;20442;-71
2023/07/26 14:05:14;;;;;;;0.75;0.50;;;;;;;22.04;39.29;99819.16;10336660;28;20195;-72
2023/07/26 14:10:16;;;;;;;1.02;0.40;;;;;;;22.00;39.53;99819.78;10346002;28;20188;-68
2023/07/26 14:15:17;;;;;;;2.00;0.40;;;;;;;21.64;39.30;99819.16;10334370;28;20057;-69
2023/07/26 14:20:22;;;;;;;0.90;0.52;;;;;;;21.64;38.83;99819.16;10336189;28;20309;-71
2023/07/26 14:25:23;;;;;;;1.02;0.60;;;;;;;21.56;39.89;99829.34;10336342;28;20327;-69
2023/07/26 14:30:24;;;;;;;1.23;0.50;;;;;;;21.28;39.60;99838.41;10334351;28;20060;-71
2023/07/26 14:35:26;;;;;;;0.93;0.80;;;;;;;21.13;40.79;99842.13;10332625;28;20053;-71
2023/07/26 14:40:28;;;;;;;1.70;0.80;;;;;;;21.22;42.38;99853.59;10334641;28;20056;-71
2023/07/26 14:45:30;;;;;;;4.20;0.68;;;;;;;21.29;42.51;99856.34;10332252;28;20650;-72
2023/07/26 14:50:31;;;;;;;2.85;0.70;;;;;;;21.16;43.86;99876.88;10333361;28;20061;-69
2023/07/26 14:55:33;;;;;;;1.58;1.00;;;;;;;20.98;45.01;99887.44;10331065;28;20058;-69
2023/07/26 15:00:34;;;;;;;2.47;0.70;;;;;;;20.86;45.56;99907.97;10332948;28;20128;-69
2023/07/26 15:05:37;;;;;;;1.23;0.77;;;;;;;20.63;46.34;99923.41;10330780;28;20049;-72
2023/07/26 15:10:39;;;;;;;0.80;0.50;;;;;;;20.55;47.70;99936.22;10330581;28;20053;-72
2023/07/26 15:15:42;;;;;;;1.65;0.52;;;;;;;19.78;50.07;99947.56;10330375;28;20559;-72
2023/07/26 15:20:43;;;;;;;0.75;0.50;;;;;;;19.64;51.69;99944.91;10331655;28;20424;-72
2023/07/26 15:25:44;;;;;;;0.63;0.40;;;;;;;19.50;52.36;99939.38;10330589;28;20148;-70
2023/07/26 15:30:46;;;;;;;0.63;0.22;;;;;;;19.58;51.28;99935.72;10330863;28;20053;-71
2023/07/26 15:35:48;;;;;;;0.55;0.30;;;;;;;19.39;50.72;99927.16;10328680;28;20136;-69
2023/07/26 15:40:53;;;;;;;2.25;0.30;;;;;;;19.40;51.38;99922.63;10331445;28;20516;-70
2023/07/26 15:45:55;;;;;;;0.95;0.30;;;;;;;19.50;52.61;99935.81;10333979;28;20090;-72
2023/07/26 15:51:00;;;;;;;1.20;0.20;;;;;;;19.47;51.99;99936.19;10335199;28;20077;-71
2023/07/26 15:56:02;;;;;;;0.52;0.20;;;;;;;19.51;51.60;99935.63;10352798;28;20061;-72
2023/07/26 16:01:03;;;;;;;1.40;0.25;;;;;;;19.53;53.09;99930.03;10358460;28;20058;-71
2023/07/26 16:06:05;;;;;;;0.57;0.30;;;;;;;19.65;52.96;99920.44;10332246;28;20053;-71
2023/07/26 16:11:09;;;;;;;0.57;0.28;;;;;;;19.61;52.41;99922.66;10329086;28;20473;-72
2023/07/26 16:16:11;;;;;;;0.77;0.35;;;;;;;19.56;52.16;99927.81;10331299;28;20042;-70
2023/07/26 16:21:15;;;;;;;1.00;0.30;;;;;;;19.53;51.18;99921.94;10299956;28;20061;-74
2023/07/26 16:26:18;;;;;;;0.77;0.30;;;;;;;19.59;52.12;99916.63;10335273;28;20495;-71
2023/07/26 16:31:19;;;;;;;0.80;0.30;;;;;;;19.61;51.26;99911.03;10329542;28;20053;-73
2023/07/26 16:36:21;;;;;;;1.45;0.40;;;;;;;19.61;51.95;99908.31;10329504;28;20050;-72
2023/07/26 16:41:22;;;;;;;1.13;0.40;;;;;;;19.59;50.95;99902.25;10329944;28;20488;-72
2023/07/26 16:46:24;;;;;;;1.50;0.50;;;;;;;19.62;50.11;99899.19;10329254;28;20548;-72
2023/07/26 16:51:37;;;;;;;;;;;;;;;19.82;51.75;99901.31;10328518;28;20057;-68
2023/07/26 16:56:39;;;;;;;0.88;0.60;;;;;;;19.91;49.29;99900.97;10327172;28;20027;-69
2023/07/26 17:01:41;;;;;;;0.60;0.47;;;;;;;19.94;49.14;99897.88;10332313;28;20499;-70
2023/07/26 17:06:42;;;;;;;1.38;0.63;;;;;;;19.92;50.10;99912.59;10330963;28;20122;-71
2023/07/26 17:11:44;;;;;;;1.30;0.77;;;;;;;19.91;50.56;99908.25;10330544;28;20057;-70
2023/07/26 17:16:45;;;;;;;1.52;0.60;;;;;;;19.80;51.49;99906.06;10326792;28;20148;-71
2023/07/26 17:21:47;;;;;;;1.00;0.80;;;;;;;19.76;52.38;99906.41;10328392;28;20145;-68
2023/07/26 17:26:48;;;;;;;0.85;0.57;;;;;;;19.85;52.87;99888.25;10331435;28;20162;-72
2023/07/26 17:31:49;;;;;;;1.35;0.90;;;;;;;19.84;52.83;99883.88;10342487;28;20140;-70
2023/07/26 17:36:51;;;;;;;1.20;0.60;;;;;;;19.82;52.78;99882.41;10338702;28;20255;-70
2023/07/26 17:41:54;;;;;;;1.90;1.13;;;;;;;19.82;54.05;99893.22;10335788;28;20124;-69
2023/07/26 17:46:55;;;;;;;1.35;1.17;;;;;;;19.80;52.83;99895.25;10340601;28;20066;-71
2023/07/26 17:51:57;;;;;;;2.22;1.40;;;;;;;19.77;53.66;99901.84;10343264;28;20487;-72
2023/07/26 17:56:59;;;;;;;1.17;1.08;;;;;;;19.80;53.48;99903.34;10345603;28;20061;-72
2023/07/26 18:02:00;;;;;;;2.55;1.10;;;;;;;19.74;53.54;99913.03;10337358;28;20442;-71
2023/07/26 18:07:02;;;;;;;1.17;0.93;;;;;;;19.71;53.96;99914.25;10341271;28;20161;-69
2023/07/26 18:12:05;;;;;;;1.30;1.00;;;;;;;19.54;54.17;99915.50;10341559;28;20050;-70
2023/07/26 18:17:06;;;;;;;3.47;1.40;;;;;;;19.58;54.78;99908.72;10338906;28;20184;-70
2023/07/26 18:22:08;;;;;;;1.98;1.17;;;;;;;19.61;55.63;99908.31;10336332;28;20054;-69
2023/07/26 18:27:09;;;;;;;1.10;1.00;;;;;;;19.67;55.88;99912.97;10340227;28;20120;-71
2023/07/26 18:32:11;;;;;;;2.95;1.50;;;;;;;19.62;56.30;99920.78;10339642;28;20137;-70
2023/07/26 18:37:12;;;;;;;2.55;1.30;;;;;;;19.62;55.16;99931.56;10333477;28;20496;-72
2023/07/26 18:42:14;;;;;;;2.03;1.30;;;;;;;19.64;55.40;99934.13;10333845;28;20101;-72
2023/07/26 18:47:15;;;;;;;2.03;1.50;;;;;;;19.60;54.85;99939.03;10332724;28;20389;-72
2023/07/26 18:52:17;;;;;;;3.13;1.88;;;;;;;19.49;55.55;99934.16;10351433;28;20057;-70
2023/07/26 18:57:18;;;;;;;1.67;1.35;;;;;;;19.46;55.57;99948.03;10330833;28;20061;-70
2023/07/26 19:02:20;;;;;;;2.92;1.50;;;;;;;19.47;56.57;99964.03;10335386;28;20403;-71
2023/07/26 19:07:22;;;;;;;1.65;1.27;;;;;;;19.40;56.25;99977.44;10332787;28;20061;-71
2023/07/26 19:12:24;;;;;;;2.40;1.30;;;;;;;19.39;56.66;99981.16;10332810;28;20069;-72
2023/07/26 19:17:25;;;;;;;1.95;1.48;;;;;;;19.31;57.40;99978.56;10333082;28;20054;-72
2023/07/26 19:22:27;;;;;;;1.70;1.25;;;;;;;19.29;57.99;99979.75;10333157;28;20050;-71
2023/07/26 19:27:28;;;;;;;1.80;1.42;;;;;;;19.30;58.03;99986.84;10332357;28;20131;-71
2023/07/26 19:32:30;;;;;;;2.97;1.45;;;;;;;19.28;58.29;99981.63;10333975;28;20076;-71
2023/07/26 19:37:33;;;;;;;1.88;1.30;;;;;;;19.26;57.86;99981.00;10331414;28;20046;-70
2023/07/26 19:42:35;;;;;;;2.55;1.70;;;;;;;19.24;57.80;99980.31;10333692;28;20049;-71
2023/07/26 19:47:36;;;;;;;2.42;1.15;;;;;;;19.08;57.28;99968.72;10333911;28;20518;-70
2023/07/26 19:52:41;;;;;;;1.20;1.00;;;;;;;19.07;57.99;99966.19;10332511;28;20129;-68
2023/07/26 19:57:42;;;;;;;2.17;1.83;;;;;;;19.07;58.24;99967.03;10330952;28;20060;-71
2023/07/26 20:02:43;;;;;;;3.83;2.15;;;;;;;19.06;57.36;99981.53;10332488;28;20227;-70
2023/07/26 20:07:45;;;;;;;1.67;1.38;;;;;;;19.04;57.41;99977.38;10334462;28;20057;-71
2023/07/26 20:12:46;;;;;;;1.95;1.42;;;;;;;19.04;57.03;99972.78;10330653;28;20049;-68
2023/07/26 20:17:48;;;;;;;1.92;1.45;;;;;;;18.98;57.32;99978.94;10329789;28;20076;-68
2023/07/26 20:22:49;;;;;;;2.38;1.85;;;;;;;18.93;57.91;99975.97;10328694;28;20669;-70
2023/07/26 20:27:51;;;;;;;3.45;1.25;;;;;;;18.92;57.99;99979.69;10335813;28;20038;-72
2023/07/26 20:32:52;;;;;;;2.13;1.58;;;;;;;18.92;57.98;99974.28;10337547;28;20406;-69
2023/07/26 20:37:54;;;;;;;2.90;1.27;;;;;;;18.90;58.75;99970.94;10348442;28;20060;-71
2023/07/26 20:42:56;;;;;;;2.42;2.22;;;;;;;18.84;58.31;99964.41;10351436;28;20061;-68
2023/07/26 20:47:57;;;;;;;2.22;1.50;;;;;;;18.85;59.51;99967.91;10332923;28;20120;-69
2023/07/26 20:52:59;;;;;;;2.88;1.60;;;;;;;18.79;58.68;99966.78;10328967;28;20492;-69
2023/07/26 20:58:00;;;;;;;1.73;1.50;;;;;;;18.79;59.07;99964.09;10328432;28;20066;-69
2023/07/26 21:03:02;;;;;;;3.22;1.50;;;;;;;18.78;59.67;99966.97;10329419;28;20049;-69
2023/07/26 21:08:03;;;;;;;2.72;1.88;;;;;;;18.76;60.05;99963.63;10329516;28;20045;-69
2023/07/26 21:13:07;;;;;;;2.05;1.83;;;;;;;18.72;59.76;99973.97;10327082;28;20053;-68
2023/07/26 21:18:08;;;;;;;2.63;1.30;;;;;;;18.65;60.69;99956.84;10319836;28;20057;-70
2023/07/26 21:23:10;;;;;;;2.50;1.83;;;;;;;18.70;60.29;99963.34;10325080;28;20050;-71
2023/07/26 21:28:11;;;;;;;3.15;1.55;;;;;;;18.69;60.67;99950.03;10328372;28;20064;-71
2023/07/26 21:33:13;;;;;;;4.20;2.63;;;;;;;18.65;60.39;99941.50;10327531;28;20107;-69
2023/07/26 21:38:15;;;;;;;2.03;1.70;;;;;;;18.62;60.90;99947.25;10328778;28;20107;-70
2023/07/26 21:43:17;;;;;;;2.58;2.00;;;;;;;18.61;60.75;99945.56;10330883;28;20073;-72
2023/07/26 21:48:18;;;;;;;2.08;1.88;;;;;;;18.57;61.20;99946.97;10327176;28;20342;-69
2023/07/26 21:53:20;;;;;;;2.85;1.92;;;;;;;18.52;62.01;99942.09;10324467;28;20045;-68
2023/07/26 21:58:21;;;;;;;2.30;1.55;;;;;;;18.53;62.03;99951.06;10326444;28;20041;-70
2023/07/26 22:03:23;;;;;;;3.92;1.63;;;;;;;18.52;62.27;99950.19;10325069;28;20439;-71
2023/07/26 22:08:25;;;;;;;2.45;2.03;;;;;;;18.47;62.01;99939.13;10324852;28;20061;-68
2023/07/26 22:13:28;;;;;;;3.35;2.10;;;;;;;18.41;62.97;99939.03;10326697;28;20527;-69
2023/07/26 22:18:29;;;;;;;3.40;2.10;;;;;;;18.36;62.67;99942.28;10331154;28;20405;-70
2023/07/26 22:23:33;;;;;;;2.60;2.10;;;;;;;18.32;63.39;99943.66;10333939;28;20053;-68
2023/07/26 22:28:36;;;;;;;3.33;2.22;;;;;;;18.29;63.54;99944.84;10334021;28;20050;-71
2023/07/26 22:33:37;;;;;;;2.92;2.15;;;;;;;18.27;62.52;99932.56;10335380;28;20053;-70
2023/07/26 22:38:39;;;;;;;3.42;2.58;;;;;;;18.20;63.50;99919.00;10334382;28;20057;-68
2023/07/26 22:43:43;;;;;;;2.92;2.53;;;;;;;18.19;62.60;99928.09;10335188;28;20543;-69
2023/07/26 22:48:44;;;;;;;;;;;;;;;18.18;62.09;99929.97;10331824;28;20078;-70
2023/07/26 22:53:48;;;;;;;4.03;2.40;;;;;;;18.11;63.09;99917.41;10329050;28;19995;-71
2023/07/26 22:58:49;;;;;;;2.28;2.08;;;;;;;18.09;62.49;99911.34;10327237;28;20496;-69
2023/07/26 23:03:51;;;;;;;4.00;2.10;;;;;;;18.09;63.15;99924.81;10323146;28;20102;-69
2023/07/26 23:08:52;;;;;;;4.70;2.72;;;;;;;18.04;62.15;99922.66;10335196;28;20149;-68
2023/07/26 23:13:54;;;;;;;2.55;1.98;;;;;;;18.03;63.22;99910.22;10332896;28;20073;-70
2023/07/26 23:18:55;;;;;;;4.25;2.35;;;;;;;17.96;62.27;99910.09;10332287;28;20070;-71
2023/07/26 23:23:56;;;;;;;6.55;2.47;;;;;;;17.89;62.17;99909.13;10331352;28;20053;-70
2023/07/26 23:28:58;;;;;;;4.28;2.70;;;;;;;17.87;63.23;99905.78;10330096;28;20054;-71